createdAt,value
2018-12-22T00:30:15.778Z,99687.54
2018-12-22T00:32:58.006Z,99682.08
2018-12-22T00:38:56.984Z,99702.52
2018-12-22T00:41:31.913Z,99703.49
2018-12-22T00:44:07.686Z,99711.28
2018-12-22T00:46:43.331Z,99724.87
2018-12-22T00:49:18.483Z,99716.23
2018-12-22T00:52:16.273Z,99726.05
2018-12-22T00:58:45.286Z,99741.37
2018-12-22T01:01:22.618Z,99748.27
2018-12-22T01:04:04.427Z,99767.70
2018-12-22T01:06:39.837Z,99758.42
2018-12-22T01:09:26.562Z,99771.30
2018-12-22T01:12:00.090Z,99768.30
2018-12-22T01:14:41.938Z,99794.91
2018-12-22T01:17:23.846Z,99800.41
2018-12-22T01:19:58.983Z,99800.16
2018-12-22T01:25:26.160Z,99819.90
2018-12-22T01:27:57.358Z,99805.97
2018-12-22T01:30:30.666Z,99817.02
2018-12-22T01:33:03.712Z,99817.99
2018-12-22T01:35:43.248Z,99823.05
2018-12-22T01:38:31.040Z,99832.77
2018-12-22T01:41:06.138Z,99841.48
2018-12-22T01:46:56.861Z,99855.27
2018-12-22T01:49:32.717Z,99854.35
2018-12-22T01:52:08.679Z,99856.63
2018-12-22T01:54:47.705Z,99877.41
2018-12-22T01:57:18.326Z,99874.20
2018-12-22T02:03:10.600Z,99883.86
2018-12-22T02:05:42.290Z,99879.70
2018-12-22T02:08:17.858Z,99888.30
2018-12-22T02:10:50.497Z,99891.16
2018-12-22T02:16:30.033Z,99885.91
2018-12-22T02:19:03.142Z,99901.41
2018-12-22T02:24:38.759Z,99894.92
2018-12-22T02:27:11.401Z,99889.67
2018-12-22T02:29:44.421Z,99895.08
2018-12-22T02:32:19.960Z,99896.16
2018-12-22T02:34:55.186Z,99892.08
2018-12-22T02:37:24.721Z,99895.20
2018-12-22T02:39:59.952Z,99917.50
2018-12-22T02:42:48.399Z,99909.41
2018-12-22T02:51:17.444Z,99930.05
2018-12-22T02:53:46.814Z,99928.62
2018-12-22T02:56:17.655Z,99934.58
2018-12-22T02:58:52.981Z,99922.77
2018-12-22T03:01:47.752Z,99923.97
2018-12-22T03:04:45.014Z,99913.09
2018-12-22T03:07:17.700Z,99935.67
2018-12-22T03:09:53.120Z,99934.96
2018-12-22T03:12:47.842Z,99941.64
2018-12-22T03:15:36.860Z,99937.95
2018-12-22T03:18:12.335Z,99945.00
2018-12-22T03:20:44.957Z,99948.11
2018-12-22T03:23:18.157Z,99945.48
2018-12-22T03:25:51.303Z,99955.00
2018-12-22T03:28:26.702Z,99956.08
2018-12-22T03:31:20.489Z,99953.69
2018-12-22T03:37:13.134Z,99960.59
2018-12-22T03:40:00.323Z,99936.83
2018-12-22T03:42:42.639Z,99967.14
2018-12-22T03:48:20.533Z,99971.70
2018-12-22T03:50:56.206Z,99973.23
2018-12-22T03:53:31.853Z,99967.41
2018-12-22T03:56:05.301Z,99971.92
2018-12-22T03:58:38.114Z,99978.72
2018-12-22T04:01:36.781Z,99983.38
2018-12-22T04:04:23.046Z,99988.13
2018-12-22T04:07:17.473Z,99987.31
2018-12-22T04:10:07.370Z,99991.48
2018-12-22T04:12:44.424Z,99994.45
2018-12-22T04:15:26.456Z,99991.13
2018-12-22T04:17:59.410Z,99998.55
2018-12-22T04:23:27.308Z,99994.95
2018-12-22T04:26:00.510Z,99999.36
2018-12-22T04:28:39.988Z,99997.80
2018-12-22T04:31:14.765Z,99996.62
2018-12-22T04:33:47.510Z,100013.94
2018-12-22T04:36:22.961Z,100003.06
2018-12-22T04:39:19.001Z,100017.03
2018-12-22T04:41:52.295Z,99941.95
2018-12-22T04:44:53.071Z,100026.59
2018-12-22T04:47:26.404Z,100035.19
2018-12-22T04:49:56.878Z,100035.04
2018-12-22T04:52:31.730Z,100036.34
2018-12-22T04:58:33.201Z,100028.28
2018-12-22T05:01:08.156Z,100030.64
2018-12-22T05:03:49.694Z,100033.84
2018-12-22T05:06:25.007Z,100048.88
2018-12-22T05:09:14.671Z,100039.93
2018-12-22T05:14:43.938Z,100051.73
2018-12-22T05:17:16.592Z,100051.61
2018-12-22T05:19:54.087Z,100050.19
2018-12-22T05:22:26.806Z,100053.39
2018-12-22T05:24:59.676Z,100057.20
2018-12-22T05:27:41.694Z,100052.10
2018-12-22T05:30:11.227Z,100055.66
2018-12-22T05:35:50.450Z,100056.50
2018-12-22T05:38:19.841Z,100068.91
2018-12-22T05:40:55.113Z,100070.19
2018-12-22T05:43:24.513Z,100078.55
2018-12-22T05:46:03.904Z,100078.66
2018-12-22T05:48:33.281Z,100082.01
2018-12-22T05:51:05.192Z,100085.81
2018-12-22T06:00:00.353Z,100091.53
2018-12-22T06:02:48.085Z,100094.50
2018-12-22T06:05:17.549Z,100095.11
2018-12-22T06:07:46.958Z,100102.14
2018-12-22T06:10:16.417Z,100102.02
2018-12-22T06:12:51.500Z,100104.28
2018-12-22T06:18:43.933Z,100102.00
2018-12-22T06:21:19.580Z,100107.74
2018-12-22T06:27:07.448Z,100129.19
2018-12-22T06:32:52.480Z,100128.80
2018-12-22T06:38:31.503Z,100137.61
2018-12-22T06:41:07.172Z,100132.02
2018-12-22T06:44:02.011Z,100130.23
2018-12-22T06:46:39.941Z,100134.66
2018-12-22T06:49:15.141Z,100133.34
2018-12-22T06:51:58.659Z,100143.57
2018-12-22T06:54:31.810Z,100106.38
2018-12-22T06:57:07.330Z,100148.83
2018-12-22T06:59:40.788Z,100154.16
2018-12-22T07:02:38.120Z,100150.23
2018-12-22T07:05:10.846Z,100150.47
2018-12-22T07:07:43.824Z,100156.32
2018-12-22T07:10:19.219Z,100163.48
2018-12-22T07:14:20.718Z,100170.13
2018-12-22T07:16:59.467Z,100177.40
2018-12-22T07:19:51.827Z,100175.38
2018-12-22T07:22:37.622Z,100183.83
2018-12-22T07:25:32.181Z,100196.81
2018-12-22T07:28:11.256Z,100205.27
2018-12-22T07:31:07.944Z,100202.16
2018-12-22T07:36:43.516Z,100208.58
2018-12-22T07:39:16.401Z,100212.53
2018-12-22T07:48:28.192Z,100223.25
2018-12-22T08:41:23.123Z,100331.55
2018-12-22T08:50:11.411Z,100355.13
2018-12-22T08:52:40.826Z,100355.70
2018-12-22T08:55:10.407Z,100356.48
2018-12-22T08:57:46.332Z,100364.77
2018-12-22T09:03:22.482Z,100376.39
2018-12-22T09:05:51.954Z,100377.55
2018-12-22T09:08:22.382Z,100387.12
2018-12-22T09:10:51.805Z,100388.53
2018-12-22T09:13:21.266Z,100398.67
2018-12-22T09:15:50.818Z,100398.88
2018-12-22T10:05:48.655Z,100465.20
2018-12-22T10:14:57.327Z,100493.42
2018-12-22T10:17:45.172Z,100495.43
2018-12-22T10:20:33.885Z,100507.02
2018-12-22T10:26:20.978Z,100492.34
2018-12-22T10:45:00.061Z,100510.20
2018-12-22T10:47:29.636Z,100523.72
2018-12-22T10:49:59.066Z,100518.72
2018-12-22T10:52:28.125Z,100528.64
2018-12-22T10:55:16.037Z,100520.42
2018-12-22T11:01:08.606Z,100527.12
2018-12-22T11:06:46.551Z,100539.73
2018-12-22T11:09:19.030Z,100541.61
2018-12-22T11:11:48.537Z,100538.88
2018-12-22T11:14:18.046Z,100535.63
2018-12-22T11:16:47.607Z,100543.25
2018-12-22T11:28:49.570Z,100567.23
2018-12-22T11:31:19.014Z,100563.44
2018-12-22T11:33:48.541Z,100563.64
